Time;durP1;ratioP1;P1;durP2;ratioP2;P2;SDS_P1;SDS_P2;PMS_P1;PMS_P2;Temp;Humidity;BMP_temperature;BMP_pressure;BME280_temperature;BME280_humidity;BME280_pressure;Samples;Min_cycle;Max_cycle;Signal;HPM_P1;HPM_P2
2023/06/26 00:02:25;;;;;;;8.85;6.60;;;;;;;-146.25;100.00;57403.91;5050435;28;20314;-81
2023/06/26 00:05:51;;;;;;;11.73;6.45;;;;;;;-146.25;100.00;57403.91;5048725;28;20234;-81
2023/06/26 00:09:17;;;;;;;8.73;6.25;;;;;;;-146.25;100.00;57403.91;5049452;28;20231;-81
2023/06/26 00:12:42;;;;;;;9.63;6.57;;;;;;;-146.25;100.00;57403.91;5048527;28;20229;-82
2023/06/26 00:16:08;;;;;;;7.80;5.90;;;;;;;-146.25;100.00;57403.91;5049310;28;20277;-82
2023/06/26 00:19:34;;;;;;;8.75;6.88;;;;;;;-146.25;100.00;57403.91;5048627;28;20303;-82
2023/06/26 00:23:00;;;;;;;12.90;7.50;;;;;;;-146.25;100.00;57403.91;5050073;28;20235;-81
2023/06/26 00:26:25;;;;;;;11.18;6.30;;;;;;;-146.25;100.00;57403.91;5048760;28;20215;-81
2023/06/26 00:29:52;;;;;;;10.75;5.53;;;;;;;-146.25;100.00;57403.91;5047444;28;20231;-82
2023/06/26 00:33:18;;;;;;;11.73;5.70;;;;;;;-146.25;100.00;57403.91;5033225;28;20231;-82
2023/06/26 00:36:45;;;;;;;10.95;5.85;;;;;;;-146.25;100.00;57403.91;5047949;28;20661;-83
2023/06/26 00:40:11;;;;;;;7.95;5.28;;;;;;;-146.25;100.00;57403.91;5049671;28;20198;-81
2023/06/26 00:43:36;;;;;;;7.00;5.97;;;;;;;-146.25;100.00;57403.91;5049735;28;20297;-82
2023/06/26 00:47:02;;;;;;;8.27;5.75;;;;;;;-146.25;100.00;57403.91;5049798;28;20273;-83
2023/06/26 00:50:27;;;;;;;10.13;6.40;;;;;;;-146.25;100.00;57403.91;5048759;28;20308;-83
2023/06/26 00:53:54;;;;;;;8.80;5.72;;;;;;;-146.25;100.00;57403.91;5049551;28;20191;-81
2023/06/26 00:57:20;;;;;;;7.22;6.00;;;;;;;-146.25;100.00;57403.91;5048591;28;20591;-82
2023/06/26 01:00:45;;;;;;;9.02;5.53;;;;;;;-146.25;100.00;57403.91;5049955;28;20242;-82
2023/06/26 01:04:17;;;;;;;6.68;5.30;;;;;;;-146.25;100.00;57403.91;5049247;28;20221;-82
2023/06/26 01:07:44;;;;;;;7.57;5.93;;;;;;;-146.25;100.00;57403.91;5050214;28;20203;-82
2023/06/26 01:11:11;;;;;;;6.47;5.75;;;;;;;-146.25;100.00;57403.91;5048770;28;20199;-82
2023/06/26 01:14:37;;;;;;;6.45;4.93;;;;;;;-146.25;100.00;57403.91;5048459;28;20265;-81
2023/06/26 01:18:03;;;;;;;5.88;5.20;;;;;;;-146.25;100.00;57403.91;5048691;28;20227;-82
2023/06/26 01:21:32;;;;;;;6.00;5.40;;;;;;;-146.25;100.00;57403.91;5048760;28;20237;-81
2023/06/26 01:25:08;;;;;;;6.45;5.78;;;;;;;-146.25;100.00;57403.91;5049508;28;20207;-82
2023/06/26 01:28:35;;;;;;;9.57;6.57;;;;;;;-146.25;100.00;57403.91;5047809;28;20541;-81
2023/06/26 01:32:02;;;;;;;7.90;5.25;;;;;;;-146.25;100.00;57403.91;5048824;28;20238;-81
2023/06/26 01:35:28;;;;;;;5.85;5.13;;;;;;;-146.25;100.00;57403.91;5048452;28;20215;-81
2023/06/26 01:38:53;;;;;;;5.97;5.40;;;;;;;-146.25;100.00;57403.91;5048371;28;20207;-81
2023/06/26 01:42:19;;;;;;;6.35;5.30;;;;;;;-146.25;100.00;57403.91;5048161;28;20794;-81
2023/06/26 01:45:47;;;;;;;5.13;4.63;;;;;;;-146.25;100.00;57403.91;5048478;28;20936;-81
2023/06/26 01:49:16;;;;;;;6.03;5.38;;;;;;;-146.25;100.00;57403.91;5047578;28;20209;-82
2023/06/26 01:52:47;;;;;;;8.35;5.18;;;;;;;-146.25;100.00;57403.91;5047987;28;20269;-82
2023/06/26 01:56:18;;;;;;;5.88;5.28;;;;;;;-146.25;100.00;57403.91;5048626;28;20206;-82
2023/06/26 01:59:47;;;;;;;9.63;6.35;;;;;;;-146.25;100.00;57403.91;5048684;28;20207;-82
2023/06/26 02:03:13;;;;;;;11.63;7.25;;;;;;;-146.25;100.00;57403.91;5048296;28;20536;-82
2023/06/26 02:06:38;;;;;;;5.78;5.20;;;;;;;-146.25;100.00;57403.91;5047465;28;20207;-80
2023/06/26 02:10:04;;;;;;;8.60;5.60;;;;;;;-146.25;100.00;57403.91;5047525;28;20730;-81
2023/06/26 02:13:29;;;;;;;11.23;5.15;;;;;;;-146.25;100.00;57403.91;5047707;28;20223;-81
2023/06/26 02:16:56;;;;;;;6.20;5.57;;;;;;;-146.25;100.00;57403.91;5050276;28;20676;-81
2023/06/26 02:20:21;;;;;;;6.97;6.15;;;;;;;-146.25;100.00;57403.91;5046959;28;20272;-81
2023/06/26 02:23:47;;;;;;;7.82;5.32;;;;;;;-146.25;100.00;57403.91;5048677;28;20306;-81
2023/06/26 02:27:12;;;;;;;8.32;5.82;;;;;;;-146.25;100.00;57403.91;5047383;28;20215;-81
2023/06/26 02:30:38;;;;;;;6.35;5.85;;;;;;;-146.25;100.00;57403.91;5048159;28;20282;-81
2023/06/26 02:34:05;;;;;;;6.07;5.57;;;;;;;-146.25;100.00;57403.91;5047091;28;20299;-82
2023/06/26 02:37:31;;;;;;;7.30;6.00;;;;;;;-146.25;100.00;57403.91;5047636;28;20196;-81
2023/06/26 02:40:56;;;;;;;8.60;6.57;;;;;;;-146.25;100.00;57403.91;5047258;28;20668;-82
2023/06/26 02:44:22;;;;;;;6.13;5.53;;;;;;;-146.25;100.00;57403.91;5048615;28;20261;-81
2023/06/26 02:47:47;;;;;;;7.03;5.65;;;;;;;-146.25;100.00;57403.91;5047298;28;20296;-81
2023/06/26 02:51:14;;;;;;;8.65;6.00;;;;;;;-146.25;100.00;57403.91;5047659;28;20417;-83
2023/06/26 02:54:28;;;;;;;8.27;6.90;;;;;;;-146.25;100.00;57403.91;5047346;28;20210;-82
2023/06/26 02:57:53;;;;;;;6.80;5.45;;;;;;;-146.25;100.00;57403.91;5048645;28;20199;-81
2023/06/26 03:01:19;;;;;;;8.05;6.32;;;;;;;-146.25;100.00;57403.91;5047482;28;20643;-83
2023/06/26 03:04:44;;;;;;;8.18;6.55;;;;;;;-146.25;100.00;57403.91;5049593;28;20616;-82
2023/06/26 03:08:11;;;;;;;9.00;6.80;;;;;;;-146.25;100.00;57403.91;5052343;28;20218;-81
2023/06/26 03:11:36;;;;;;;10.57;6.82;;;;;;;-146.25;100.00;57403.91;5051372;28;20253;-81
2023/06/26 03:15:02;;;;;;;7.40;5.95;;;;;;;-146.25;100.00;57403.91;5052159;28;20221;-82
2023/06/26 03:18:27;;;;;;;9.18;6.07;;;;;;;-146.25;100.00;57403.91;5050872;28;20221;-82
2023/06/26 03:21:52;;;;;;;7.68;6.45;;;;;;;-146.25;100.00;57403.91;5052062;28;20280;-82
2023/06/26 03:25:20;;;;;;;8.13;6.50;;;;;;;-146.25;100.00;57403.91;5050529;28;20668;-82
2023/06/26 03:28:45;;;;;;;11.55;6.50;;;;;;;-146.25;100.00;57403.91;5051318;28;20720;-82
2023/06/26 03:32:10;;;;;;;8.48;6.47;;;;;;;-146.25;100.00;57403.91;5050915;28;20215;-81
2023/06/26 03:35:36;;;;;;;9.60;7.05;;;;;;;-146.25;100.00;57403.91;5051715;28;20208;-82
2023/06/26 03:39:02;;;;;;;8.93;6.88;;;;;;;-146.25;100.00;57403.91;5050534;28;20207;-81
2023/06/26 03:42:29;;;;;;;8.60;7.13;;;;;;;-146.25;100.00;57403.91;5051323;28;20219;-81
2023/06/26 03:45:54;;;;;;;8.88;6.93;;;;;;;-146.25;100.00;57403.91;5051004;28;20195;-81
2023/06/26 03:49:20;;;;;;;9.25;7.38;;;;;;;-146.25;100.00;57403.91;5050880;28;20256;-82
2023/06/26 03:52:45;;;;;;;13.00;6.95;;;;;;;-146.25;100.00;57403.91;5050921;28;20683;-83
2023/06/26 03:56:11;;;;;;;8.88;6.88;;;;;;;-146.25;100.00;57403.91;5052429;28;20214;-81
2023/06/26 03:59:38;;;;;;;9.07;7.05;;;;;;;-146.25;100.00;57403.91;5050542;28;20196;-82
2023/06/26 04:03:04;;;;;;;9.80;6.88;;;;;;;-146.25;100.00;57403.91;5051179;28;20318;-82
2023/06/26 04:06:31;;;;;;;10.48;6.93;;;;;;;-146.25;100.00;57403.91;5050219;28;20609;-82
2023/06/26 04:09:56;;;;;;;9.10;6.18;;;;;;;-146.25;100.00;57403.91;5049471;28;20632;-82
2023/06/26 04:13:22;;;;;;;7.57;6.60;;;;;;;-146.25;100.00;57403.91;5050102;28;20227;-83
2023/06/26 04:16:49;;;;;;;10.00;7.03;;;;;;;-146.25;100.00;57403.91;5049691;28;20204;-83
2023/06/26 04:20:14;;;;;;;7.43;6.72;;;;;;;-146.25;100.00;57403.91;5050086;28;20199;-82
2023/06/26 04:23:40;;;;;;;7.03;6.35;;;;;;;-146.25;100.00;57403.91;5050262;28;20258;-82
2023/06/26 04:27:06;;;;;;;6.93;6.07;;;;;;;-146.25;100.00;57403.91;5050363;28;20285;-82
2023/06/26 04:30:32;;;;;;;5.97;5.40;;;;;;;-146.25;100.00;57403.91;5049904;28;20614;-83
2023/06/26 04:33:59;;;;;;;10.63;7.82;;;;;;;-146.25;100.00;57403.91;5050208;28;20633;-83
2023/06/26 04:37:25;;;;;;;7.05;6.38;;;;;;;-146.25;100.00;57403.91;5048840;28;20254;-83
2023/06/26 04:40:50;;;;;;;7.80;6.57;;;;;;;-146.25;100.00;57403.91;5049339;28;20331;-83
2023/06/26 04:44:16;;;;;;;7.47;6.78;;;;;;;-146.25;100.00;57403.91;5050754;28;20224;-83
2023/06/26 04:47:41;;;;;;;6.90;6.18;;;;;;;-146.25;100.00;57403.91;5049279;28;20289;-84
2023/06/26 04:51:08;;;;;;;6.20;5.60;;;;;;;-146.25;100.00;57403.91;5049452;28;20732;-83
2023/06/26 04:54:33;;;;;;;6.35;5.80;;;;;;;-146.25;100.00;57403.91;5048738;28;20199;-83
2023/06/26 04:57:59;;;;;;;6.45;5.85;;;;;;;-146.25;100.00;57403.91;5049606;28;20270;-82
2023/06/26 05:01:24;;;;;;;6.10;5.70;;;;;;;-146.25;100.00;57403.91;5048967;28;20222;-83
2023/06/26 05:04:50;;;;;;;7.15;6.25;;;;;;;-146.25;100.00;57403.91;5049310;28;20284;-83
2023/06/26 05:08:17;;;;;;;8.68;7.82;;;;;;;-146.25;100.00;57403.91;5049313;28;20637;-83
2023/06/26 05:11:43;;;;;;;6.60;6.00;;;;;;;-146.25;100.00;57403.91;5049826;28;20196;-82
2023/06/26 05:15:09;;;;;;;7.18;6.47;;;;;;;-146.25;100.00;57403.91;5048455;28;20711;-82
2023/06/26 05:18:34;;;;;;;6.45;5.60;;;;;;;-146.25;100.00;57403.91;5039057;28;20207;-81
2023/06/26 05:22:03;;;;;;;6.50;5.90;;;;;;;-146.25;100.00;57403.91;5041406;28;20207;-83
2023/06/26 05:25:30;;;;;;;6.50;5.90;;;;;;;-146.25;100.00;57403.91;5041210;28;20231;-82
2023/06/26 05:28:56;;;;;;;6.78;6.15;;;;;;;-146.25;100.00;57403.91;5037289;28;20211;-82
2023/06/26 05:32:22;;;;;;;7.90;5.70;;;;;;;-146.25;100.00;57403.91;5048722;28;20215;-82
2023/06/26 05:35:49;;;;;;;6.80;6.07;;;;;;;-146.25;100.00;57403.91;5049775;28;20214;-82
2023/06/26 05:39:15;;;;;;;6.95;6.05;;;;;;;-146.25;100.00;57403.91;5048364;28;20735;-82
2023/06/26 05:42:42;;;;;;;6.07;5.47;;;;;;;-146.25;100.00;57403.91;5048079;28;20273;-81
2023/06/26 05:46:09;;;;;;;6.78;5.97;;;;;;;-146.25;100.00;57403.91;5047178;28;20200;-82
2023/06/26 05:49:35;;;;;;;6.38;5.78;;;;;;;-146.25;100.00;57403.91;5037071;28;20290;-81
2023/06/26 05:53:03;;;;;;;6.50;5.72;;;;;;;-146.25;100.00;57403.91;5040703;28;20218;-83
2023/06/26 05:56:29;;;;;;;7.03;6.35;;;;;;;-146.25;100.00;57403.91;5052784;28;20289;-81
2023/06/26 05:59:56;;;;;;;6.07;5.50;;;;;;;-146.25;100.00;57403.91;5036464;28;20301;-82
2023/06/26 06:03:21;;;;;;;6.45;5.85;;;;;;;-146.25;100.00;57403.91;5044740;28;20259;-82
2023/06/26 06:06:47;;;;;;;10.07;6.30;;;;;;;-146.25;100.00;57403.91;5048584;28;20660;-82
2023/06/26 06:10:12;;;;;;;7.82;6.25;;;;;;;-146.25;100.00;57403.91;5040423;28;20416;-83
2023/06/26 06:13:38;;;;;;;8.15;5.97;;;;;;;-146.25;100.00;57403.91;5039830;28;20460;-82
2023/06/26 06:17:05;;;;;;;6.65;6.03;;;;;;;-146.25;100.00;57403.91;5038026;28;20207;-82
2023/06/26 06:20:31;;;;;;;6.43;5.80;;;;;;;-146.25;100.00;57403.91;5027847;28;20204;-83
2023/06/26 06:23:56;;;;;;;6.03;5.45;;;;;;;-146.25;100.00;57403.91;5028245;28;20293;-83
2023/06/26 06:27:21;;;;;;;6.88;6.18;;;;;;;-146.25;100.00;57403.91;5037502;28;20282;-82
2023/06/26 06:30:47;;;;;;;6.68;6.00;;;;;;;-146.25;100.00;57403.91;5028329;28;20204;-82
2023/06/26 06:34:14;;;;;;;6.00;5.40;;;;;;;-146.25;100.00;57403.91;5031814;28;20299;-82
2023/06/26 06:37:40;;;;;;;7.82;5.90;;;;;;;-146.25;100.00;57403.91;5043504;28;20215;-83
2023/06/26 06:41:06;;;;;;;7.63;5.82;;;;;;;-146.25;100.00;57403.91;5048743;28;20200;-83
2023/06/26 06:44:31;;;;;;;5.20;4.80;;;;;;;-146.25;100.00;57403.91;5047664;28;20231;-82
2023/06/26 06:47:56;;;;;;;5.05;4.65;;;;;;;-146.25;100.00;57403.91;5043664;28;20218;-82
2023/06/26 06:51:23;;;;;;;5.03;4.72;;;;;;;-146.25;100.00;57403.91;5027520;28;20684;-83
2023/06/26 06:54:52;;;;;;;6.20;5.15;;;;;;;-146.25;100.00;57403.91;5026784;28;20204;-82
2023/06/26 06:58:18;;;;;;;5.18;4.78;;;;;;;-146.25;100.00;57403.91;5026889;28;20726;-82
2023/06/26 07:01:44;;;;;;;4.55;4.25;;;;;;;-146.25;100.00;57403.91;5031155;28;20666;-82
2023/06/26 07:05:12;;;;;;;5.00;4.63;;;;;;;-146.25;100.00;57403.91;5047912;28;20231;-82
2023/06/26 07:08:39;;;;;;;4.35;4.15;;;;;;;-146.25;100.00;57403.91;5047694;28;20616;-81
2023/06/26 07:12:05;;;;;;;4.35;4.05;;;;;;;-146.25;100.00;57403.91;5048219;28;20269;-81
2023/06/26 07:15:30;;;;;;;5.43;3.90;;;;;;;-146.25;100.00;57403.91;5046907;28;20203;-80
2023/06/26 07:18:59;;;;;;;4.00;3.67;;;;;;;-146.25;100.00;57403.91;5035284;28;20278;-81
2023/06/26 07:22:24;;;;;;;5.05;3.72;;;;;;;-146.25;100.00;57403.91;5026652;28;20199;-82
2023/06/26 07:25:51;;;;;;;4.30;4.03;;;;;;;-146.25;100.00;57403.91;5027151;28;20235;-83
2023/06/26 07:29:16;;;;;;;3.95;3.75;;;;;;;-146.25;100.00;57403.91;5027023;28;20204;-85
2023/06/26 07:32:42;;;;;;;3.30;3.17;;;;;;;-146.25;100.00;57403.91;5027747;28;20203;-83
2023/06/26 07:36:08;;;;;;;4.45;4.10;;;;;;;-146.25;100.00;57403.91;5027692;28;20200;-84
2023/06/26 07:39:34;;;;;;;3.88;3.58;;;;;;;-146.25;100.00;57403.91;5026134;28;20218;-85
2023/06/26 07:43:01;;;;;;;3.08;2.88;;;;;;;-146.25;100.00;57403.91;5024551;28;20199;-81
2023/06/26 07:46:27;;;;;;;3.95;3.65;;;;;;;-146.25;100.00;57403.91;5024624;28;20235;-85
2023/06/26 07:49:52;;;;;;;6.47;4.22;;;;;;;-146.25;100.00;57403.91;5025644;28;20968;-84
2023/06/26 07:53:18;;;;;;;3.38;3.17;;;;;;;-146.25;100.00;57403.91;5030351;28;20200;-83
2023/06/26 07:56:56;;;;;;;2.95;2.78;;;;;;;-146.25;100.00;57403.91;5030946;28;20245;-83
2023/06/26 08:00:24;;;;;;;2.78;2.67;;;;;;;-146.25;100.00;57403.91;5030631;28;20199;-85
2023/06/26 08:03:50;;;;;;;2.95;2.75;;;;;;;-146.25;100.00;57403.91;5031336;28;20230;-83
2023/06/26 08:07:16;;;;;;;2.72;2.63;;;;;;;-146.25;100.00;57403.91;5030134;28;20287;-85
2023/06/26 08:10:41;;;;;;;2.58;2.47;;;;;;;-146.25;100.00;57403.91;5031366;28;20253;-85
2023/06/26 08:14:07;;;;;;;3.38;3.17;;;;;;;-146.25;100.00;57403.91;5030842;28;20289;-86
2023/06/26 08:17:34;;;;;;;3.10;3.00;;;;;;;-146.25;100.00;57403.91;5031033;28;20529;-84
2023/06/26 08:21:00;;;;;;;3.50;3.40;;;;;;;-146.25;100.00;57403.91;5029740;28;20211;-85
2023/06/26 08:24:25;;;;;;;2.67;2.47;;;;;;;-146.25;100.00;57403.91;5030539;28;20202;-86
2023/06/26 08:27:52;;;;;;;2.97;2.78;;;;;;;-146.25;100.00;57403.91;5030412;28;20283;-85
2023/06/26 08:31:18;;;;;;;3.35;2.95;;;;;;;-146.25;100.00;57403.91;5030563;28;20700;-84
2023/06/26 08:34:44;;;;;;;2.58;2.47;;;;;;;-146.25;100.00;57403.91;5029772;28;20215;-83
2023/06/26 08:38:10;;;;;;;2.80;2.70;;;;;;;-146.25;100.00;57403.91;5030129;28;20203;-86
2023/06/26 08:41:35;;;;;;;5.25;3.22;;;;;;;-146.25;100.00;57403.91;5030333;28;20276;-83
2023/06/26 08:45:01;;;;;;;3.70;2.53;;;;;;;-146.25;100.00;57403.91;5029723;28;20253;-84
2023/06/26 08:48:27;;;;;;;3.05;2.85;;;;;;;-146.25;100.00;57403.91;5029633;28;20207;-84
2023/06/26 08:52:02;;;;;;;2.55;2.45;;;;;;;-146.25;100.00;57403.91;5029669;28;20595;-83
2023/06/26 08:55:34;;;;;;;2.63;2.53;;;;;;;-146.25;100.00;57403.91;5029922;28;20671;-84
2023/06/26 08:59:00;;;;;;;3.33;3.13;;;;;;;-146.25;100.00;57403.91;5029454;28;20684;-85
2023/06/26 09:02:29;;;;;;;3.03;2.83;;;;;;;-146.25;100.00;57403.91;5029215;28;20676;-85
2023/06/26 09:05:56;;;;;;;2.70;2.60;;;;;;;-146.25;100.00;57403.91;5029822;28;20238;-84
2023/06/26 09:09:21;;;;;;;3.78;2.90;;;;;;;-146.25;100.00;57403.91;5030136;28;20740;-84
2023/06/26 09:12:47;;;;;;;2.47;2.38;;;;;;;-146.25;100.00;57403.91;5029488;28;20227;-84
2023/06/26 09:16:14;;;;;;;3.03;2.92;;;;;;;-146.25;100.00;57403.91;5029603;28;20700;-83
2023/06/26 09:19:40;;;;;;;2.92;2.25;;;;;;;-146.25;100.00;57403.91;5029407;28;20295;-82
2023/06/26 09:23:14;;;;;;;2.55;2.35;;;;;;;-146.25;100.00;57403.91;5028885;28;20212;-82
2023/06/26 09:26:41;;;;;;;3.15;2.95;;;;;;;-146.25;100.00;57403.91;5028888;28;20704;-85
2023/06/26 09:30:07;;;;;;;4.10;2.33;;;;;;;-146.25;100.00;57403.91;5028586;28;20216;-86
2023/06/26 09:33:35;;;;;;;2.67;2.58;;;;;;;-146.25;100.00;57403.91;5028478;28;20200;-85
2023/06/26 09:37:02;;;;;;;6.40;2.80;;;;;;;-146.25;100.00;57403.91;5028434;28;20203;-85
2023/06/26 09:40:31;;;;;;;4.88;2.75;;;;;;;-146.25;100.00;57403.91;5029195;28;20567;-85
2023/06/26 09:44:03;;;;;;;3.28;3.10;;;;;;;-146.25;100.00;57403.91;5030004;28;20277;-85
2023/06/26 09:47:31;;;;;;;2.92;2.25;;;;;;;-146.25;100.00;57403.91;5044333;28;20228;-85
2023/06/26 09:50:57;;;;;;;2.05;1.95;;;;;;;-146.25;100.00;57403.91;5029350;28;20696;-84
2023/06/26 09:54:28;;;;;;;2.83;2.55;;;;;;;-146.25;100.00;57403.91;5029158;28;20201;-86
2023/06/26 09:58:07;;;;;;;2.25;2.15;;;;;;;-146.25;100.00;57403.91;5027410;28;20200;-84
2023/06/26 10:01:32;;;;;;;3.00;2.85;;;;;;;-146.25;100.00;57403.91;5028720;28;20204;-84
2023/06/26 10:04:58;;;;;;;3.08;2.80;;;;;;;-146.25;100.00;57403.91;5029271;28;20196;-84
2023/06/26 10:08:25;;;;;;;3.50;3.33;;;;;;;-146.25;100.00;57403.91;5028411;28;20257;-84
2023/06/26 10:11:54;;;;;;;2.95;2.75;;;;;;;-146.25;100.00;57403.91;5027480;28;20253;-84
2023/06/26 10:15:23;;;;;;;2.58;2.47;;;;;;;-146.25;100.00;57403.91;5027524;28;20200;-85
2023/06/26 10:18:52;;;;;;;2.65;2.45;;;;;;;-146.25;100.00;57403.91;5028137;28;20277;-85
2023/06/26 10:22:19;;;;;;;2.72;2.50;;;;;;;-146.25;100.00;57403.91;5028323;28;20210;-84
2023/06/26 10:25:46;;;;;;;2.80;2.60;;;;;;;-146.25;100.00;57403.91;5028772;28;20641;-84
2023/06/26 10:29:14;;;;;;;3.08;2.13;;;;;;;-146.25;100.00;57403.91;5027644;28;20731;-84
2023/06/26 10:32:43;;;;;;;2.38;2.20;;;;;;;-146.25;100.00;57403.91;5027780;28;20704;-84
2023/06/26 10:36:15;;;;;;;2.75;2.55;;;;;;;-146.25;100.00;57403.91;5028659;28;20199;-85
2023/06/26 10:38:51;;;;;;;2.60;2.40;;;;;;;-146.25;100.00;57403.91;5027885;28;20722;-85
2023/06/26 10:41:22;;;;;;;2.50;2.40;;;;;;;-146.25;100.00;57403.91;5027482;28;20199;-86
2023/06/26 10:43:51;;;;;;;3.13;2.92;;;;;;;-146.25;100.00;57403.91;5028550;28;20211;-85
2023/06/26 10:46:23;;;;;;;3.20;2.70;;;;;;;-146.25;100.00;57403.91;5027300;28;20231;-85
2023/06/26 10:49:03;;;;;;;2.88;2.67;;;;;;;-146.25;100.00;57403.91;5026743;28;20266;-85
2023/06/26 10:51:31;;;;;;;2.85;2.63;;;;;;;-146.25;100.00;57403.91;5027752;28;20805;-85
2023/06/26 10:54:00;;;;;;;2.70;2.53;;;;;;;-146.25;100.00;57403.91;5028004;28;20246;-85
2023/06/26 10:56:42;;;;;;;2.70;2.60;;;;;;;-146.25;100.00;57403.91;5028394;28;20258;-86
2023/06/26 10:59:15;;;;;;;3.10;2.92;;;;;;;-146.25;100.00;57403.91;5028044;28;20260;-85
2023/06/26 11:01:45;;;;;;;2.33;2.22;;;;;;;-146.25;100.00;57403.91;5026827;28;20208;-85
2023/06/26 11:04:18;;;;;;;2.63;2.45;;;;;;;-146.25;100.00;57403.91;5027836;28;20204;-85
2023/06/26 11:06:48;;;;;;;2.80;2.60;;;;;;;-146.25;100.00;57403.91;5028093;28;20262;-85
2023/06/26 11:09:18;;;;;;;3.17;2.97;;;;;;;-146.25;100.00;57403.91;5027614;28;20188;-85
2023/06/26 11:12:04;;;;;;;3.22;3.03;;;;;;;-146.25;100.00;57403.91;5026773;28;20221;-83
2023/06/26 11:14:35;;;;;;;2.65;2.55;;;;;;;-146.25;100.00;57403.91;5028094;28;20599;-85
2023/06/26 11:17:05;;;;;;;3.47;3.17;;;;;;;-146.25;100.00;57403.91;5027496;28;20210;-84
2023/06/26 11:19:34;;;;;;;2.65;2.45;;;;;;;-146.25;100.00;57403.91;5026914;28;20577;-85
2023/06/26 11:22:05;;;;;;;2.75;2.63;;;;;;;-146.25;100.00;57403.91;5027915;28;20691;-85
2023/06/26 11:24:33;;;;;;;3.20;2.90;;;;;;;-146.25;100.00;57403.91;5028973;28;20215;-84
2023/06/26 11:27:04;;;;;;;2.45;2.35;;;;;;;-146.25;100.00;57403.91;5031344;28;20255;-84
2023/06/26 11:29:33;;;;;;;2.72;2.53;;;;;;;-146.25;100.00;57403.91;5031697;28;20278;-84
2023/06/26 11:32:02;;;;;;;2.50;2.40;;;;;;;-146.25;100.00;57403.91;5031134;28;20200;-85
2023/06/26 11:34:32;;;;;;;2.90;2.70;;;;;;;-146.25;100.00;57403.91;5031148;28;20207;-85
2023/06/26 11:37:04;;;;;;;2.53;2.42;;;;;;;-146.25;100.00;57403.91;5031904;28;20212;-86
2023/06/26 11:39:31;;;;;;;4.68;2.85;;;;;;;-146.25;100.00;57403.91;5030251;28;20310;-86
2023/06/26 11:42:00;;;;;;;2.65;2.55;;;;;;;-146.25;100.00;57403.91;5031829;28;20204;-85
2023/06/26 11:44:31;;;;;;;3.00;2.80;;;;;;;-146.25;100.00;57403.91;5031695;28;20246;-85
2023/06/26 11:46:58;;;;;;;2.60;2.40;;;;;;;-146.25;100.00;57403.91;5030798;28;20653;-85
2023/06/26 11:49:27;;;;;;;2.55;2.45;;;;;;;-146.25;100.00;57403.91;5031008;28;20625;-84
2023/06/26 11:51:57;;;;;;;3.00;2.90;;;;;;;-146.25;100.00;57403.91;5031402;28;20541;-85
2023/06/26 11:54:28;;;;;;;2.67;2.47;;;;;;;-146.25;100.00;57403.91;5030727;28;20207;-85
2023/06/26 11:56:57;;;;;;;3.20;2.97;;;;;;;-146.25;100.00;57403.91;5031063;28;20195;-84
2023/06/26 11:59:25;;;;;;;2.85;2.65;;;;;;;-146.25;100.00;57403.91;5031016;28;20224;-84
2023/06/26 12:01:54;;;;;;;3.42;3.20;;;;;;;-146.25;100.00;57403.91;5030140;28;20227;-86
2023/06/26 12:04:22;;;;;;;2.95;2.72;;;;;;;-146.25;100.00;57403.91;5029823;28;20205;-84
2023/06/26 12:06:51;;;;;;;2.75;2.58;;;;;;;-146.25;100.00;57403.91;5030708;28;20231;-85
2023/06/26 12:09:20;;;;;;;2.75;2.65;;;;;;;-146.25;100.00;57403.91;5030590;28;20204;-84
2023/06/26 12:11:54;;;;;;;3.13;2.88;;;;;;;-146.25;100.00;57403.91;5029401;28;20249;-84
2023/06/26 12:14:23;;;;;;;3.45;2.90;;;;;;;-146.25;100.00;57403.91;5030382;28;20262;-86
2023/06/26 12:16:51;;;;;;;3.05;2.85;;;;;;;-146.25;100.00;57403.91;5030770;28;20563;-85
2023/06/26 12:19:18;;;;;;;2.53;2.42;;;;;;;-146.25;100.00;57403.91;5030367;28;20291;-85
2023/06/26 12:21:52;;;;;;;2.85;2.65;;;;;;;-146.25;100.00;57403.91;5030460;28;20254;-85
2023/06/26 12:24:20;;;;;;;2.47;2.38;;;;;;;-146.25;100.00;57403.91;5030680;28;20636;-85
2023/06/26 12:26:53;;;;;;;3.17;2.97;;;;;;;-146.25;100.00;57403.91;5030090;28;20732;-85
2023/06/26 12:29:21;;;;;;;2.72;2.47;;;;;;;-146.25;100.00;57403.91;5030044;28;20197;-84
2023/06/26 12:31:51;;;;;;;2.78;2.55;;;;;;;-146.25;100.00;57403.91;5030433;28;20204;-83
2023/06/26 12:34:20;;;;;;;2.90;2.50;;;;;;;-146.25;100.00;57403.91;5030545;28;20204;-84
2023/06/26 12:36:50;;;;;;;2.42;2.33;;;;;;;-146.25;100.00;57403.91;5029811;28;20211;-85
2023/06/26 12:39:19;;;;;;;2.40;2.20;;;;;;;-146.25;100.00;57403.91;5030332;28;20580;-84
2023/06/26 12:41:53;;;;;;;2.75;2.60;;;;;;;-146.25;100.00;57403.91;5029329;28;20196;-84
2023/06/26 12:44:22;;;;;;;3.08;2.85;;;;;;;-146.25;100.00;57403.91;5030154;28;20199;-85
2023/06/26 12:46:51;;;;;;;3.00;2.80;;;;;;;-146.25;100.00;57403.91;5029706;28;20310;-86
2023/06/26 12:49:19;;;;;;;2.78;2.58;;;;;;;-146.25;100.00;57403.91;5030030;28;20212;-85
2023/06/26 12:51:46;;;;;;;3.17;2.97;;;;;;;-146.25;100.00;57403.91;5029888;28;20281;-85
2023/06/26 12:54:13;;;;;;;2.70;2.60;;;;;;;-146.25;100.00;57403.91;5029201;28;20610;-85
2023/06/26 12:56:43;;;;;;;2.75;2.60;;;;;;;-146.25;100.00;57403.91;5030653;28;20208;-84
2023/06/26 12:59:11;;;;;;;2.97;2.78;;;;;;;-146.25;100.00;57403.91;5029629;28;20594;-84
2023/06/26 13:01:38;;;;;;;2.88;2.60;;;;;;;-146.25;100.00;57403.91;5028825;28;20603;-84
2023/06/26 13:04:08;;;;;;;3.22;3.03;;;;;;;-146.25;100.00;57403.91;5030476;28;20261;-85
2023/06/26 13:06:34;;;;;;;3.03;2.92;;;;;;;-146.25;100.00;57403.91;5029583;28;20235;-84
2023/06/26 13:09:05;;;;;;;2.97;2.78;;;;;;;-146.25;100.00;57403.91;5029326;28;20639;-85
2023/06/26 13:11:32;;;;;;;3.13;2.85;;;;;;;-146.25;100.00;57403.91;5029863;28;20597;-86
2023/06/26 13:14:00;;;;;;;3.40;2.65;;;;;;;-146.25;100.00;57403.91;5030061;28;20708;-85
2023/06/26 13:16:30;;;;;;;3.33;3.13;;;;;;;-146.25;100.00;57403.91;5028924;28;20204;-86
2023/06/26 13:18:59;;;;;;;3.33;3.08;;;;;;;-146.25;100.00;57403.91;5029327;28;20287;-85
2023/06/26 13:21:26;;;;;;;3.33;3.10;;;;;;;-146.25;100.00;57403.91;5029938;28;20211;-85
2023/06/26 13:23:53;;;;;;;2.70;2.60;;;;;;;-146.25;100.00;57403.91;5029009;28;20358;-86
2023/06/26 13:26:21;;;;;;;3.53;3.15;;;;;;;-146.25;100.00;57403.91;5029403;28;20227;-84
2023/06/26 13:28:48;;;;;;;3.10;2.80;;;;;;;-146.25;100.00;57403.91;5029435;28;20733;-85
2023/06/26 13:31:15;;;;;;;2.95;2.75;;;;;;;-146.25;100.00;57403.91;5028991;28;20196;-85
2023/06/26 13:33:45;;;;;;;2.75;2.65;;;;;;;-146.25;100.00;57403.91;5029534;28;20200;-85
2023/06/26 13:36:13;;;;;;;2.85;2.65;;;;;;;-146.25;100.00;57403.91;5042256;28;20203;-83
2023/06/26 13:38:40;;;;;;;2.97;2.78;;;;;;;-146.25;100.00;57403.91;5038977;28;20529;-84
2023/06/26 13:41:07;;;;;;;2.50;2.40;;;;;;;-146.25;100.00;57403.91;5029614;28;20204;-83
2023/06/26 13:43:36;;;;;;;2.50;2.40;;;;;;;-146.25;100.00;57403.91;5028762;28;20269;-82
2023/06/26 13:46:03;;;;;;;3.30;2.95;;;;;;;-146.25;100.00;57403.91;5031408;28;20211;-82
2023/06/26 13:48:30;;;;;;;3.30;2.78;;;;;;;-146.25;100.00;57403.91;5037662;28;20310;-83
2023/06/26 13:50:59;;;;;;;3.25;2.53;;;;;;;-146.25;100.00;57403.91;5048416;28;20231;-82
2023/06/26 13:53:26;;;;;;;2.58;2.47;;;;;;;-146.25;100.00;57403.91;5048809;28;20205;-82
2023/06/26 13:55:53;;;;;;;2.63;2.42;;;;;;;-146.25;100.00;57403.91;5047692;28;20652;-83
2023/06/26 13:58:24;;;;;;;3.50;3.22;;;;;;;-146.25;100.00;57403.91;5033975;28;20200;-83
2023/06/26 14:00:52;;;;;;;7.13;2.95;;;;;;;-146.25;100.00;57403.91;5048440;28;20191;-82
2023/06/26 14:03:19;;;;;;;3.83;2.90;;;;;;;-146.25;100.00;57403.91;5023315;28;20200;-81
2023/06/26 14:05:46;;;;;;;3.67;3.38;;;;;;;-146.25;100.00;57403.91;5028413;28;20204;-82
2023/06/26 14:08:15;;;;;;;3.13;2.92;;;;;;;-146.25;100.00;57403.91;5028508;28;20783;-83
2023/06/26 14:10:42;;;;;;;3.55;3.25;;;;;;;-146.25;100.00;57403.91;5028400;28;20250;-83
2023/06/26 14:13:11;;;;;;;2.92;2.72;;;;;;;-146.25;100.00;57403.91;5029156;28;20224;-82
2023/06/26 14:15:40;;;;;;;3.38;3.08;;;;;;;-146.25;100.00;57403.91;5032730;28;20204;-83